Time;durP1;ratioP1;P1;durP2;ratioP2;P2;SDS_P1;SDS_P2;PMS_P1;PMS_P2;Temp;Humidity;BMP_temperature;BMP_pressure;BME280_temperature;BME280_humidity;BME280_pressure;Samples;Min_cycle;Max_cycle;Signal;HPM_P1;HPM_P2
2021/03/28 00:02:32;;;;;;;2.87;1.30;;;;;;;;;;4998756;28;20226;-73
2021/03/28 00:05:37;;;;;;;3.40;1.20;;;;;;;;;;4998960;28;20593;-76
2021/03/28 00:08:45;;;;;;;4.57;1.50;;;;;;;;;;4998398;28;20206;-72
2021/03/28 00:12:02;;;;;;;2.93;1.20;;;;;;;;;;5008516;28;20709;-73
2021/03/28 00:15:09;;;;;;;5.10;1.50;;;;;;;;;;4984513;28;20191;-73
2021/03/28 00:18:51;;;;;;;5.27;1.30;;;;;;;;;;5000889;28;20191;-73
2021/03/28 00:22:03;;;;;;;4.20;1.50;;;;;;;;;;4993304;28;20214;-73
2021/03/28 00:25:45;;;;;;;3.27;1.07;;;;;;;;;;4978645;28;20215;-73
2021/03/28 00:29:03;;;;;;;4.33;1.67;;;;;;;;;;5000819;28;20191;-73
2021/03/28 00:32:11;;;;;;;6.80;1.57;;;;;;;;;;5008158;28;20692;-72
2021/03/28 00:35:19;;;;;;;3.70;1.27;;;;;;;;;;4997889;28;20178;-73
2021/03/28 00:38:43;;;;;;;2.73;1.30;;;;;;;;;;4989234;28;20203;-73
2021/03/28 00:41:57;;;;;;;5.60;1.60;;;;;;;;;;4977686;28;20218;-73
2021/03/28 00:45:25;;;;;;;2.70;1.37;;;;;;;;;;4978414;28;20217;-73
2021/03/28 00:48:31;;;;;;;5.30;1.50;;;;;;;;;;4988141;28;20178;-73
2021/03/28 00:51:47;;;;;;;2.83;1.10;;;;;;;;;;5008152;28;20222;-73
2021/03/28 00:54:45;;;;;;;5.53;1.60;;;;;;;;;;5114026;27;20756;-74
2021/03/28 00:58:28;;;;;;;5.20;1.40;;;;;;;;;;5113307;28;20213;-74
2021/03/28 01:01:56;;;;;;;2.20;1.37;;;;;;;;;;5095769;28;20226;-74
2021/03/28 01:05:00;;;;;;;2.83;1.83;;;;;;;;;;5094266;28;20179;-73
2021/03/28 01:08:20;;;;;;;5.20;1.57;;;;;;;;;;5092950;28;20191;-72
2021/03/28 01:11:42;;;;;;;3.93;1.57;;;;;;;;;;5073099;28;20219;-72
2021/03/28 01:14:54;;;;;;;2.90;1.30;;;;;;;;;;5104211;28;20179;-72
2021/03/28 01:18:08;;;;;;;5.50;1.77;;;;;;;;;;5093352;28;20191;-73
2021/03/28 01:21:12;;;;;;;2.47;1.33;;;;;;;;;;5093911;28;20183;-72
2021/03/28 01:24:44;;;;;;;5.30;1.83;;;;;;;;;;5080620;28;20561;-72
2021/03/28 01:27:57;;;;;;;4.70;1.40;;;;;;;;;;5072802;28;20191;-73
2021/03/28 01:31:13;;;;;;;5.30;1.60;;;;;;;;;;5076278;28;20179;-72
2021/03/28 01:34:32;;;;;;;4.27;1.37;;;;;;;;;;5093530;28;20211;-73
2021/03/28 01:38:07;;;;;;;5.93;1.57;;;;;;;;;;5071433;28;20195;-72
2021/03/28 01:41:23;;;;;;;3.73;1.50;;;;;;;;;;5061408;28;20179;-73
2021/03/28 01:44:42;;;;;;;4.87;1.40;;;;;;;;;;5073863;28;20631;-73
2021/03/28 01:47:59;;;;;;;6.03;1.50;;;;;;;;;;5100950;28;20195;-72
2021/03/28 01:51:22;;;;;;;3.70;1.50;;;;;;;;;;5072435;28;20180;-71
2021/03/28 01:54:50;;;;;;;2.20;1.20;;;;;;;;;;5092870;28;20207;-72
2021/03/28 01:58:07;;;;;;;3.83;1.27;;;;;;;;;;5093605;28;20186;-73
2021/03/28 02:01:20;;;;;;;4.53;1.67;;;;;;;;;;5069462;28;20199;-72
2021/03/28 02:04:40;;;;;;;4.93;1.20;;;;;;;;;;5087550;28;20623;-73
2021/03/28 02:07:47;;;;;;;3.37;1.63;;;;;;;;;;5078592;28;20191;-72
2021/03/28 02:11:13;;;;;;;4.27;1.50;;;;;;;;;;5058434;28;20176;-73
2021/03/28 02:14:51;;;;;;;3.80;1.70;;;;;;;;;;5058518;28;20204;-72
2021/03/28 02:18:15;;;;;;;3.37;1.13;;;;;;;;;;5047656;28;20189;-72
2021/03/28 02:21:41;;;;;;;3.67;1.27;;;;;;;;;;5067451;28;20657;-71
2021/03/28 02:24:49;;;;;;;6.20;1.77;;;;;;;;;;5079753;28;20195;-72
2021/03/28 02:28:08;;;;;;;3.80;1.40;;;;;;;;;;5079944;28;20554;-72
2021/03/28 02:31:24;;;;;;;3.27;1.40;;;;;;;;;;5058931;28;20185;-73
2021/03/28 02:34:29;;;;;;;4.77;1.50;;;;;;;;;;5067679;28;20211;-72
2021/03/28 02:38:10;;;;;;;7.03;1.53;;;;;;;;;;5078526;28;20183;-71
2021/03/28 02:41:39;;;;;;;3.03;1.37;;;;;;;;;;5064102;28;20180;-72
2021/03/28 02:44:58;;;;;;;4.57;1.70;;;;;;;;;;5078781;28;20171;-73
2021/03/28 02:48:22;;;;;;;5.27;1.40;;;;;;;;;;5077939;28;20180;-72
2021/03/28 02:51:36;;;;;;;2.27;1.43;;;;;;;;;;5077666;28;20219;-75
2021/03/28 02:54:47;;;;;;;4.30;1.93;;;;;;;;;;5077595;28;20211;-72
2021/03/28 02:58:17;;;;;;;4.70;1.60;;;;;;;;;;5066006;28;20195;-72
2021/03/28 03:01:33;;;;;;;2.57;1.30;;;;;;;;;;5077705;28;20199;-72
2021/03/28 03:05:11;;;;;;;2.60;1.50;;;;;;;;;;5078257;28;20184;-72
2021/03/28 03:08:25;;;;;;;3.90;1.53;;;;;;;;;;5077729;28;20546;-72
2021/03/28 03:11:51;;;;;;;4.27;1.80;;;;;;;;;;5078011;28;20219;-72
2021/03/28 03:15:16;;;;;;;3.13;1.40;;;;;;;;;;5077565;28;20207;-73
2021/03/28 03:18:26;;;;;;;5.03;1.47;;;;;;;;;;5058189;28;20551;-73
2021/03/28 03:22:05;;;;;;;4.97;1.77;;;;;;;;;;5066485;28;20573;-72
2021/03/28 03:25:21;;;;;;;4.77;1.40;;;;;;;;;;5070828;28;20183;-72
2021/03/28 03:28:36;;;;;;;6.50;1.40;;;;;;;;;;5076915;28;20634;-72
2021/03/28 03:32:06;;;;;;;4.00;1.50;;;;;;;;;;5076704;28;20220;-72
2021/03/28 03:35:34;;;;;;;5.10;1.37;;;;;;;;;;5077385;28;20176;-72
2021/03/28 03:38:51;;;;;;;4.47;1.43;;;;;;;;;;5058437;28;20184;-73
2021/03/28 03:42:13;;;;;;;6.60;1.63;;;;;;;;;;5067400;28;20219;-72
2021/03/28 03:45:35;;;;;;;4.13;1.50;;;;;;;;;;5077508;28;20590;-72
2021/03/28 03:48:53;;;;;;;3.03;1.37;;;;;;;;;;5065494;28;20196;-72
2021/03/28 03:52:35;;;;;;;6.90;1.43;;;;;;;;;;5064860;28;20211;-72
2021/03/28 03:55:50;;;;;;;5.70;1.97;;;;;;;;;;5067143;28;20188;-72
2021/03/28 03:59:18;;;;;;;3.33;1.40;;;;;;;;;;5077392;28;20192;-72
2021/03/28 04:02:51;;;;;;;3.53;1.37;;;;;;;;;;5057030;28;20618;-72
2021/03/28 04:06:03;;;;;;;4.10;1.60;;;;;;;;;;5068929;28;20183;-74
2021/03/28 04:09:32;;;;;;;5.33;1.70;;;;;;;;;;5076710;28;20183;-71
2021/03/28 04:13:04;;;;;;;3.57;1.40;;;;;;;;;;5056773;28;20212;-73
2021/03/28 04:16:18;;;;;;;3.97;1.33;;;;;;;;;;5076209;28;20192;-72
2021/03/28 04:19:36;;;;;;;5.17;1.73;;;;;;;;;;5064560;28;20605;-71
2021/03/28 04:22:47;;;;;;;7.43;1.77;;;;;;;;;;5076124;28;20219;-71
2021/03/28 04:26:06;;;;;;;3.00;1.27;;;;;;;;;;5076540;28;20187;-71
2021/03/28 04:29:13;;;;;;;8.03;1.47;;;;;;;;;;5076838;28;20176;-71
2021/03/28 04:32:43;;;;;;;3.90;1.60;;;;;;;;;;5075411;28;20574;-72
2021/03/28 04:36:04;;;;;;;3.07;1.47;;;;;;;;;;5075801;28;20578;-71
2021/03/28 04:39:33;;;;;;;4.13;1.53;;;;;;;;;;5076050;28;20188;-72
2021/03/28 04:42:52;;;;;;;4.47;1.50;;;;;;;;;;5075902;28;20693;-73
2021/03/28 04:46:24;;;;;;;3.20;1.57;;;;;;;;;;5075290;28;21183;-71
2021/03/28 04:49:56;;;;;;;3.27;1.60;;;;;;;;;;5073564;28;20543;-72
2021/03/28 04:53:07;;;;;;;6.93;1.30;;;;;;;;;;5071631;28;20219;-73
2021/03/28 04:56:45;;;;;;;3.47;1.83;;;;;;;;;;5072698;28;20203;-73
2021/03/28 04:59:59;;;;;;;7.47;1.50;;;;;;;;;;5072914;28;21142;-73
2021/03/28 05:03:41;;;;;;;6.90;1.50;;;;;;;;;;5061367;28;21234;-73
2021/03/28 05:07:10;;;;;;;5.80;1.83;;;;;;;;;;5052851;28;20543;-74
2021/03/28 05:10:52;;;;;;;5.30;2.00;;;;;;;;;;5072494;28;20638;-73
2021/03/28 05:14:18;;;;;;;9.30;1.83;;;;;;;;;;5072932;28;20203;-74
2021/03/28 05:17:56;;;;;;;5.53;1.60;;;;;;;;;;5067221;28;20204;-73
2021/03/28 05:21:18;;;;;;;3.93;1.70;;;;;;;;;;5072679;28;20550;-73
2021/03/28 05:24:45;;;;;;;7.30;1.97;;;;;;;;;;5072029;28;20192;-73
2021/03/28 05:28:26;;;;;;;2.90;1.43;;;;;;;;;;5072097;28;20570;-73
2021/03/28 05:31:49;;;;;;;3.77;1.57;;;;;;;;;;5063234;28;21223;-73
2021/03/28 05:35:15;;;;;;;3.10;1.43;;;;;;;;;;5053838;28;20674;-76
2021/03/28 05:38:44;;;;;;;5.63;1.83;;;;;;;;;;5071749;28;20590;-73
2021/03/28 05:42:43;;;;;;;2.70;1.50;;;;;;;;;;5074530;28;20211;-74
2021/03/28 05:46:18;;;;;;;3.87;1.60;;;;;;;;;;5041513;28;20207;-74
2021/03/28 05:50:10;;;;;;;4.57;1.70;;;;;;;;;;5075436;28;20195;-73
2021/03/28 05:53:43;;;;;;;3.13;1.87;;;;;;;;;;5074407;28;20231;-74
2021/03/28 05:57:16;;;;;;;5.10;1.77;;;;;;;;;;5075964;28;20191;-72
2021/03/28 06:00:45;;;;;;;6.10;2.20;;;;;;;;;;5075870;28;20180;-73
2021/03/28 06:04:40;;;;;;;7.27;4.53;;;;;;;;;;5075647;28;20175;-73
2021/03/28 06:08:08;;;;;;;7.73;2.43;;;;;;;;;;5014333;28;20671;-73
2021/03/28 06:11:34;;;;;;;6.87;2.50;;;;;;;;;;5011785;28;20203;-73
2021/03/28 06:14:45;;;;;;;7.60;2.30;;;;;;;;;;5076241;28;20562;-73
2021/03/28 06:18:08;;;;;;;5.47;1.77;;;;;;;;;;5075931;28;20187;-73
2021/03/28 06:21:18;;;;;;;2.93;1.80;;;;;;;;;;5075063;28;20546;-73
2021/03/28 06:24:46;;;;;;;7.33;1.90;;;;;;;;;;5075740;28;20179;-73
2021/03/28 06:28:16;;;;;;;3.60;1.90;;;;;;;;;;5075490;28;20180;-73
2021/03/28 06:31:34;;;;;;;5.40;1.60;;;;;;;;;;5075627;28;20183;-73
2021/03/28 06:34:59;;;;;;;5.20;1.60;;;;;;;;;;5075521;28;20200;-73
2021/03/28 06:38:42;;;;;;;3.40;1.47;;;;;;;;;;5075408;28;20184;-73
2021/03/28 06:42:23;;;;;;;7.00;2.10;;;;;;;;;;5075562;28;20211;-73
2021/03/28 06:45:59;;;;;;;3.63;1.47;;;;;;;;;;5074861;28;20212;-73
2021/03/28 06:49:39;;;;;;;4.03;1.57;;;;;;;;;;5075450;28;20176;-73
2021/03/28 06:52:55;;;;;;;4.53;2.00;;;;;;;;;;5074859;28;20227;-74
2021/03/28 06:56:33;;;;;;;5.93;2.60;;;;;;;;;;5074280;28;20207;-73
2021/03/28 06:59:52;;;;;;;14.47;7.40;;;;;;;;;;5075162;28;20199;-73
2021/03/28 07:03:23;;;;;;;12.57;4.80;;;;;;;;;;5075118;28;20211;-73
2021/03/28 07:06:44;;;;;;;31.47;17.10;;;;;;;;;;5074163;28;20179;-73
2021/03/28 07:10:06;;;;;;;56.00;25.33;;;;;;;;;;5062879;28;20180;-73
2021/03/28 07:13:33;;;;;;;58.27;23.00;;;;;;;;;;5074135;28;20211;-73
2021/03/28 07:16:55;;;;;;;28.23;11.13;;;;;;;;;;5074496;28;20177;-73
2021/03/28 07:20:20;;;;;;;25.73;11.80;;;;;;;;;;5074891;28;20213;-73
2021/03/28 07:23:43;;;;;;;45.40;21.20;;;;;;;;;;5074790;28;20228;-73
2021/03/28 07:26:56;;;;;;;36.00;16.47;;;;;;;;;;5073516;28;20187;-73
2021/03/28 07:30:38;;;;;;;56.83;25.63;;;;;;;;;;5073425;28;20187;-73
2021/03/28 07:34:09;;;;;;;47.27;21.47;;;;;;;;;;5074684;28;20657;-74
2021/03/28 07:37:36;;;;;;;169.03;74.60;;;;;;;;;;5085330;28;20662;-74
2021/03/28 07:41:05;;;;;;;11.67;5.20;;;;;;;;;;5074559;28;20190;-73
2021/03/28 07:44:40;;;;;;;5.80;1.80;;;;;;;;;;5074454;28;20180;-74
2021/03/28 07:48:22;;;;;;;6.93;2.30;;;;;;;;;;5074152;28;20517;-73
2021/03/28 07:52:04;;;;;;;3.97;1.73;;;;;;;;;;5073769;28;20215;-73
2021/03/28 07:55:19;;;;;;;8.23;2.40;;;;;;;;;;5073952;28;20546;-73
2021/03/28 07:58:35;;;;;;;7.37;2.40;;;;;;;;;;5073716;28;20188;-73
2021/03/28 08:01:58;;;;;;;8.03;4.13;;;;;;;;;;5073392;28;20219;-74
2021/03/28 08:05:18;;;;;;;5.67;2.60;;;;;;;;;;5073932;28;20180;-73
2021/03/28 08:08:41;;;;;;;7.10;2.00;;;;;;;;;;5074300;28;20184;-73
2021/03/28 08:11:54;;;;;;;7.20;2.17;;;;;;;;;;5092464;22;20573;-75
2021/03/28 08:15:23;;;;;;;9.10;2.33;;;;;;;;;;5093734;28;20226;-75
2021/03/28 08:18:34;;;;;;;6.17;2.17;;;;;;;;;;5061725;28;20175;-75
2021/03/28 08:22:17;;;;;;;5.43;1.73;;;;;;;;;;5061349;28;20218;-75
2021/03/28 08:25:43;;;;;;;10.03;1.93;;;;;;;;;;5073883;28;20180;-75
2021/03/28 08:28:55;;;;;;;4.87;2.20;;;;;;;;;;5038789;28;20180;-75
2021/03/28 08:32:43;;;;;;;7.20;1.90;;;;;;;;;;5085413;28;20227;-75
2021/03/28 08:36:07;;;;;;;4.20;1.50;;;;;;;;;;5092576;28;20211;-75
2021/03/28 08:39:29;;;;;;;4.13;1.67;;;;;;;;;;5093718;28;20514;-75
2021/03/28 08:43:05;;;;;;;4.90;1.40;;;;;;;;;;5094235;28;20665;-75
2021/03/28 08:46:42;;;;;;;14.53;9.53;;;;;;;;;;5093563;28;20179;-75
2021/03/28 08:49:55;;;;;;;2.70;1.17;;;;;;;;;;5093037;28;20534;-75
2021/03/28 08:53:25;;;;;;;3.17;1.77;;;;;;;;;;5092362;28;20218;-75
2021/03/28 08:56:41;;;;;;;3.83;1.50;;;;;;;;;;5093115;28;20210;-75
2021/03/28 09:00:01;;;;;;;7.17;2.00;;;;;;;;;;5093485;28;20522;-75
2021/03/28 09:03:11;;;;;;;5.17;1.60;;;;;;;;;;5092830;28;20215;-75
2021/03/28 09:06:25;;;;;;;7.57;2.30;;;;;;;;;;5092760;28;20171;-75
2021/03/28 09:09:53;;;;;;;7.00;3.10;;;;;;;;;;5092565;28;20186;-75
2021/03/28 09:13:32;;;;;;;7.73;2.10;;;;;;;;;;5092059;28;20696;-75
2021/03/28 09:16:43;;;;;;;3.50;1.40;;;;;;;;;;5097613;28;20211;-75
2021/03/28 09:20:13;;;;;;;2.70;1.40;;;;;;;;;;5096713;28;20186;-75
2021/03/28 09:23:42;;;;;;;2.20;1.23;;;;;;;;;;5097081;28;20222;-75
2021/03/28 09:27:09;;;;;;;5.43;1.60;;;;;;;;;;5096964;28;20175;-75
2021/03/28 09:30:21;;;;;;;5.93;1.63;;;;;;;;;;5103473;28;20511;-75
2021/03/28 09:33:44;;;;;;;4.00;1.60;;;;;;;;;;5084828;28;20211;-75
2021/03/28 09:37:16;;;;;;;5.90;1.60;;;;;;;;;;5095945;28;20207;-75
2021/03/28 09:40:30;;;;;;;6.03;1.23;;;;;;;;;;5096140;28;20178;-75
2021/03/28 09:44:02;;;;;;;6.83;1.70;;;;;;;;;;5096642;28;20175;-75
2021/03/28 09:47:33;;;;;;;3.30;1.20;;;;;;;;;;5096844;28;20514;-75
2021/03/28 09:50:37;;;;;;;4.63;1.33;;;;;;;;;;5095968;28;20175;-75
2021/03/28 09:54:07;;;;;;;4.53;1.57;;;;;;;;;;5096735;28;20175;-75
2021/03/28 09:57:29;;;;;;;2.13;1.20;;;;;;;;;;5096437;28;20179;-75
2021/03/28 10:00:50;;;;;;;3.10;1.40;;;;;;;;;;5096619;28;20179;-75
2021/03/28 10:03:57;;;;;;;4.43;1.80;;;;;;;;;;5096566;28;20510;-75
2021/03/28 10:07:03;;;;;;;3.07;1.27;;;;;;;;;;5096183;28;20170;-75
2021/03/28 10:10:21;;;;;;;4.57;1.30;;;;;;;;;;5096442;28;20178;-75
2021/03/28 10:13:46;;;;;;;2.90;1.30;;;;;;;;;;5084438;28;20222;-75
2021/03/28 10:17:15;;;;;;;4.47;1.73;;;;;;;;;;5096266;28;20538;-75
2021/03/28 10:20:25;;;;;;;3.33;1.17;;;;;;;;;;5096018;28;20186;-75
2021/03/28 10:24:03;;;;;;;3.13;1.90;;;;;;;;;;5096205;28;20187;-75
2021/03/28 10:27:43;;;;;;;4.77;1.80;;;;;;;;;;5086085;28;20202;-75
2021/03/28 10:31:00;;;;;;;2.97;1.40;;;;;;;;;;5084187;28;20199;-76
2021/03/28 10:34:23;;;;;;;6.80;1.77;;;;;;;;;;5106861;28;20179;-75
2021/03/28 10:37:57;;;;;;;6.00;1.70;;;;;;;;;;5083495;28;20176;-75
2021/03/28 10:41:29;;;;;;;5.87;2.03;;;;;;;;;;5095999;28;20187;-75
2021/03/28 10:44:36;;;;;;;3.53;1.60;;;;;;;;;;5094980;28;20175;-75
2021/03/28 10:48:30;;;;;;;7.43;1.80;;;;;;;;;;5095646;28;20175;-75
2021/03/28 10:51:46;;;;;;;5.90;1.97;;;;;;;;;;5082851;28;20219;-75
2021/03/28 10:55:15;;;;;;;3.77;1.87;;;;;;;;;;5095237;28;20179;-75
2021/03/28 10:58:38;;;;;;;6.40;1.83;;;;;;;;;;5094411;28;20182;-76
2021/03/28 11:02:10;;;;;;;6.00;2.17;;;;;;;;;;5094530;28;20210;-75
2021/03/28 11:05:41;;;;;;;4.80;1.60;;;;;;;;;;5095460;28;20182;-75
2021/03/28 11:09:02;;;;;;;3.53;1.43;;;;;;;;;;5095533;28;20179;-75
2021/03/28 11:12:14;;;;;;;4.20;1.37;;;;;;;;;;5094127;28;20222;-75
2021/03/28 11:15:32;;;;;;;8.77;1.83;;;;;;;;;;5082646;28;20183;-75
2021/03/28 11:18:48;;;;;;;6.30;1.70;;;;;;;;;;5095343;28;20183;-75
2021/03/28 11:22:23;;;;;;;5.23;1.33;;;;;;;;;;5094838;28;20215;-75
2021/03/28 11:25:34;;;;;;;3.60;1.60;;;;;;;;;;5095248;28;20171;-75
2021/03/28 11:28:48;;;;;;;4.13;1.50;;;;;;;;;;5094614;28;20191;-75
2021/03/28 11:32:03;;;;;;;4.67;1.53;;;;;;;;;;5094243;28;20215;-75
2021/03/28 11:35:10;;;;;;;3.07;1.30;;;;;;;;;;5094997;28;20179;-75
2021/03/28 11:38:17;;;;;;;3.27;1.70;;;;;;;;;;5094139;28;20183;-75
2021/03/28 11:41:26;;;;;;;5.43;1.50;;;;;;;;;;5094473;28;20179;-74
2021/03/28 11:44:40;;;;;;;4.23;1.70;;;;;;;;;;5094596;28;20186;-75
2021/03/28 11:47:55;;;;;;;5.00;1.67;;;;;;;;;;5093404;28;20183;-75
2021/03/28 11:51:27;;;;;;;5.43;1.70;;;;;;;;;;5094878;28;20183;-75
2021/03/28 11:54:32;;;;;;;3.63;1.60;;;;;;;;;;5094713;28;20175;-75
2021/03/28 11:57:38;;;;;;;3.93;1.60;;;;;;;;;;5093225;28;20203;-76
2021/03/28 12:00:54;;;;;;;7.83;1.80;;;;;;;;;;5094431;28;20175;-75
2021/03/28 12:04:36;;;;;;;4.43;1.70;;;;;;;;;;5093902;28;20179;-76
2021/03/28 12:07:43;;;;;;;4.47;1.80;;;;;;;;;;5093132;28;20179;-75
2021/03/28 12:10:50;;;;;;;7.50;1.40;;;;;;;;;;5092937;28;20198;-75
2021/03/28 12:13:59;;;;;;;10.33;1.60;;;;;;;;;;5093550;28;20178;-76
2021/03/28 12:17:10;;;;;;;5.53;1.50;;;;;;;;;;5093963;28;20202;-76
2021/03/28 12:20:18;;;;;;;3.07;1.43;;;;;;;;;;5081841;28;20187;-76
2021/03/28 12:23:26;;;;;;;1.73;1.03;;;;;;;;;;5093972;28;20218;-76
2021/03/28 12:26:48;;;;;;;5.43;1.80;;;;;;;;;;5099742;28;20179;-75
2021/03/28 12:29:53;;;;;;;4.43;1.60;;;;;;;;;;5093116;28;20182;-75
2021/03/28 12:33:07;;;;;;;13.30;1.60;;;;;;;;;;5093984;28;20214;-75
2021/03/28 12:36:17;;;;;;;15.53;8.60;;;;;;;;;;5093410;28;20203;-75
2021/03/28 12:39:41;;;;;;;4.27;2.17;;;;;;;;;;5093657;28;20175;-75
2021/03/28 12:42:47;;;;;;;6.53;2.10;;;;;;;;;;5081184;28;20684;-74
2021/03/28 12:45:51;;;;;;;4.20;1.53;;;;;;;;;;5093855;28;20638;-75
2021/03/28 12:49:21;;;;;;;4.43;1.50;;;;;;;;;;5092455;28;20174;-74
2021/03/28 12:52:45;;;;;;;4.27;1.67;;;;;;;;;;5093377;28;20582;-74
2021/03/28 12:55:54;;;;;;;5.37;1.87;;;;;;;;;;5092604;28;20175;-75
2021/03/28 12:58:59;;;;;;;6.90;1.80;;;;;;;;;;5093480;28;20614;-75
2021/03/28 13:02:30;;;;;;;5.33;1.93;;;;;;;;;;5093254;28;20214;-75
2021/03/28 13:05:37;;;;;;;5.00;1.80;;;;;;;;;;5093638;28;20175;-74
2021/03/28 13:08:52;;;;;;;4.53;1.50;;;;;;;;;;5093394;28;20175;-75
2021/03/28 13:12:24;;;;;;;4.63;1.43;;;;;;;;;;5092213;28;20222;-75
2021/03/28 13:15:46;;;;;;;5.93;1.53;;;;;;;;;;5080696;28;20175;-75
2021/03/28 13:18:52;;;;;;;6.80;1.90;;;;;;;;;;5093492;28;20187;-75
2021/03/28 13:22:03;;;;;;;4.90;1.53;;;;;;;;;;5093423;28;20210;-75
2021/03/28 13:25:33;;;;;;;4.40;1.40;;;;;;;;;;5092636;28;20190;-75
2021/03/28 13:28:38;;;;;;;4.93;1.33;;;;;;;;;;5093679;28;20515;-75
2021/03/28 13:31:45;;;;;;;5.13;1.50;;;;;;;;;;5093094;28;20218;-75
2021/03/28 13:35:21;;;;;;;4.83;1.77;;;;;;;;;;5093039;28;20522;-75
2021/03/28 13:38:25;;;;;;;5.20;1.87;;;;;;;;;;5098980;28;20516;-75
2021/03/28 13:41:33;;;;;;;5.33;1.87;;;;;;;;;;5092714;28;20210;-75
2021/03/28 13:44:53;;;;;;;5.10;1.70;;;;;;;;;;5093306;28;20183;-75
2021/03/28 13:48:07;;;;;;;5.87;1.50;;;;;;;;;;5093038;28;20175;-74
2021/03/28 13:51:24;;;;;;;3.97;1.57;;;;;;;;;;5092929;28;20183;-75
2021/03/28 13:54:28;;;;;;;4.43;1.40;;;;;;;;;;5092449;28;20179;-75
2021/03/28 13:57:36;;;;;;;5.17;2.13;;;;;;;;;;5092893;28;20206;-75
2021/03/28 14:00:41;;;;;;;4.30;1.90;;;;;;;;;;5095188;28;20186;-74
2021/03/28 14:03:48;;;;;;;3.73;1.73;;;;;;;;;;5097321;28;20179;-74
2021/03/28 14:07:21;;;;;;;7.77;2.00;;;;;;;;;;5096870;28;20186;-74
2021/03/28 14:10:34;;;;;;;5.47;1.70;;;;;;;;;;5096641;28;20202;-75
2021/03/28 14:13:41;;;;;;;3.57;1.60;;;;;;;;;;5107052;22;20231;-73
2021/03/28 14:16:47;;;;;;;3.90;1.57;;;;;;;;;;5096264;28;20549;-73
2021/03/28 14:20:08;;;;;;;4.70;1.97;;;;;;;;;;5096280;28;20183;-74
2021/03/28 14:23:12;;;;;;;4.63;1.73;;;;;;;;;;5093887;28;20218;-73
2021/03/28 14:26:16;;;;;;;6.03;1.70;;;;;;;;;;5082992;28;20549;-72
2021/03/28 14:29:34;;;;;;;4.67;1.70;;;;;;;;;;5083690;28;20182;-74
2021/03/28 14:32:43;;;;;;;5.47;1.70;;;;;;;;;;5073692;28;20219;-71
2021/03/28 14:36:21;;;;;;;4.50;1.90;;;;;;;;;;5094243;28;20195;-72
2021/03/28 14:39:43;;;;;;;3.37;1.60;;;;;;;;;;5086777;28;20195;-73
2021/03/28 14:42:56;;;;;;;4.57;1.70;;;;;;;;;;5075280;28;20223;-73
2021/03/28 14:46:19;;;;;;;4.40;1.43;;;;;;;;;;5079811;28;20199;-73
2021/03/28 14:49:38;;;;;;;3.47;1.40;;;;;;;;;;5083599;28;20175;-73
2021/03/28 14:53:07;;;;;;;2.87;1.70;;;;;;;;;;5067834;28;20573;-72
2021/03/28 14:56:31;;;;;;;6.37;1.70;;;;;;;;;;5062907;28;20171;-73
2021/03/28 14:59:50;;;;;;;2.27;1.30;;;;;;;;;;5075117;28;20180;-73
2021/03/28 15:03:19;;;;;;;4.93;1.40;;;;;;;;;;5074820;28;20219;-73
2021/03/28 15:06:48;;;;;;;5.70;1.70;;;;;;;;;;5075278;28;20179;-73
2021/03/28 15:10:14;;;;;;;6.83;1.73;;;;;;;;;;5062991;28;20175;-74
2021/03/28 15:13:29;;;;;;;12.70;2.23;;;;;;;;;;5074599;28;20226;-73
2021/03/28 15:16:59;;;;;;;5.03;1.77;;;;;;;;;;5075066;28;20176;-73
2021/03/28 15:20:22;;;;;;;5.13;1.67;;;;;;;;;;5074208;28;20183;-74
2021/03/28 15:23:35;;;;;;;5.80;1.77;;;;;;;;;;5074417;28;20701;-73
2021/03/28 15:26:58;;;;;;;12.43;1.80;;;;;;;;;;5074589;28;20179;-73
2021/03/28 15:30:17;;;;;;;4.30;1.70;;;;;;;;;;5074894;28;20179;-73
2021/03/28 15:33:40;;;;;;;5.27;1.90;;;;;;;;;;5075003;28;20211;-73
2021/03/28 15:37:00;;;;;;;6.30;1.90;;;;;;;;;;5094352;28;20222;-72
2021/03/28 15:40:36;;;;;;;4.50;1.87;;;;;;;;;;5094690;28;20175;-73
2021/03/28 15:43:52;;;;;;;4.67;1.60;;;;;;;;;;5092939;28;20198;-72
2021/03/28 15:47:15;;;;;;;5.37;1.60;;;;;;;;;;5099703;28;20203;-72
2021/03/28 15:50:34;;;;;;;4.60;1.73;;;;;;;;;;5094259;28;20187;-74
2021/03/28 15:54:14;;;;;;;5.30;1.63;;;;;;;;;;5093896;28;20194;-74
2021/03/28 15:57:43;;;;;;;5.23;1.67;;;;;;;;;;5094042;28;20214;-72
2021/03/28 16:01:06;;;;;;;3.47;1.47;;;;;;;;;;5094445;28;20202;-73
2021/03/28 16:04:38;;;;;;;3.50;1.23;;;;;;;;;;5093757;28;20183;-73
2021/03/28 16:07:51;;;;;;;4.97;1.67;;;;;;;;;;5074493;28;20179;-73
2021/03/28 16:11:10;;;;;;;5.57;1.67;;;;;;;;;;5073852;28;20179;-73
2021/03/28 16:14:23;;;;;;;5.07;1.40;;;;;;;;;;5078817;28;20211;-72
2021/03/28 16:17:52;;;;;;;5.53;1.43;;;;;;;;;;5093659;28;20219;-73
2021/03/28 16:21:12;;;;;;;4.30;1.67;;;;;;;;;;5081600;28;20179;-73
2021/03/28 16:24:26;;;;;;;3.93;1.73;;;;;;;;;;5064622;28;20195;-72
2021/03/28 16:27:37;;;;;;;4.43;1.50;;;;;;;;;;5073522;28;20200;-73
2021/03/28 16:30:49;;;;;;;5.03;1.60;;;;;;;;;;5073570;28;20183;-74
2021/03/28 16:34:08;;;;;;;4.40;1.43;;;;;;;;;;5075662;28;20190;-73
2021/03/28 16:37:22;;;;;;;8.70;1.60;;;;;;;;;;5093529;28;20219;-74
2021/03/28 16:40:32;;;;;;;4.33;1.50;;;;;;;;;;5070851;28;20183;-73
2021/03/28 16:43:49;;;;;;;4.17;1.53;;;;;;;;;;5081545;28;20179;-72
2021/03/28 16:47:00;;;;;;;2.63;1.60;;;;;;;;;;5073117;28;20195;-73
2021/03/28 16:50:25;;;;;;;4.73;1.47;;;;;;;;;;5073267;28;20179;-74
2021/03/28 16:53:41;;;;;;;4.40;1.60;;;;;;;;;;5073980;28;20674;-73
2021/03/28 16:56:49;;;;;;;5.53;1.60;;;;;;;;;;5073320;28;20188;-73
2021/03/28 17:00:10;;;;;;;4.50;1.90;;;;;;;;;;5088923;28;20546;-73
2021/03/28 17:03:14;;;;;;;4.67;2.30;;;;;;;;;;5092453;28;20565;-73
2021/03/28 17:06:22;;;;;;;2.83;1.67;;;;;;;;;;5072715;28;20661;-73
2021/03/28 17:09:31;;;;;;;6.73;1.73;;;;;;;;;;5075249;28;20646;-73
2021/03/28 17:12:40;;;;;;;11.03;1.90;;;;;;;;;;5078694;28;20222;-74
2021/03/28 17:15:48;;;;;;;7.13;1.90;;;;;;;;;;5072697;28;20195;-72
2021/03/28 17:19:14;;;;;;;5.13;1.77;;;;;;;;;;5073036;28;20215;-72
2021/03/28 17:22:45;;;;;;;4.03;1.53;;;;;;;;;;5073904;28;20214;-72
2021/03/28 17:26:15;;;;;;;6.07;1.57;;;;;;;;;;5074431;28;20190;-72
2021/03/28 17:29:24;;;;;;;11.63;2.30;;;;;;;;;;5093149;28;20179;-73
2021/03/28 17:32:51;;;;;;;8.13;1.60;;;;;;;;;;5093035;28;20214;-73
2021/03/28 17:36:14;;;;;;;2.70;1.20;;;;;;;;;;5092988;28;20194;-74
2021/03/28 17:39:27;;;;;;;4.20;1.83;;;;;;;;;;5096437;28;20211;-72
2021/03/28 17:42:32;;;;;;;5.80;1.57;;;;;;;;;;5096620;28;20705;-73
2021/03/28 17:45:42;;;;;;;6.90;1.80;;;;;;;;;;5094440;28;20190;-72
2021/03/28 17:48:46;;;;;;;2.47;1.27;;;;;;;;;;5088903;28;20191;-72
2021/03/28 17:51:50;;;;;;;3.07;1.37;;;;;;;;;;5076091;28;20218;-74
2021/03/28 17:55:10;;;;;;;4.73;1.40;;;;;;;;;;5084774;28;20641;-73
2021/03/28 17:58:20;;;;;;;2.97;1.47;;;;;;;;;;5084097;28;20210;-73
2021/03/28 18:01:42;;;;;;;3.47;1.57;;;;;;;;;;5096727;28;20179;-73
2021/03/28 18:04:52;;;;;;;4.23;1.30;;;;;;;;;;5082417;28;20568;-74
2021/03/28 18:08:02;;;;;;;3.13;1.60;;;;;;;;;;5083725;28;20176;-73
2021/03/28 18:11:20;;;;;;;3.77;1.50;;;;;;;;;;5096234;28;20194;-74
2021/03/28 18:14:34;;;;;;;4.23;1.47;;;;;;;;;;5095542;28;20199;-74
2021/03/28 18:17:38;;;;;;;4.23;1.70;;;;;;;;;;5096179;28;20207;-74
2021/03/28 18:20:43;;;;;;;3.00;1.37;;;;;;;;;;5096206;28;20183;-74
2021/03/28 18:23:47;;;;;;;4.33;1.50;;;;;;;;;;5096448;28;20175;-74
2021/03/28 18:26:53;;;;;;;5.67;1.40;;;;;;;;;;5075587;28;20203;-73
2021/03/28 18:30:02;;;;;;;4.33;1.53;;;;;;;;;;5086211;28;20183;-74
2021/03/28 18:33:14;;;;;;;2.03;1.27;;;;;;;;;;5095910;28;20211;-73
2021/03/28 18:36:32;;;;;;;4.77;1.50;;;;;;;;;;5075540;28;20188;-74
2021/03/28 18:39:44;;;;;;;2.70;1.53;;;;;;;;;;5063797;28;20208;-73
2021/03/28 18:42:58;;;;;;;5.30;1.60;;;;;;;;;;5063076;28;20222;-74
2021/03/28 18:46:06;;;;;;;4.63;1.50;;;;;;;;;;5075590;28;20192;-74
2021/03/28 18:49:23;;;;;;;2.47;1.50;;;;;;;;;;5070189;28;20183;-74
2021/03/28 18:52:28;;;;;;;4.00;1.60;;;;;;;;;;5095761;28;20219;-74
2021/03/28 18:56:02;;;;;;;4.87;1.47;;;;;;;;;;5078918;28;20191;-74
2021/03/28 18:59:12;;;;;;;6.33;1.40;;;;;;;;;;5074927;28;20207;-74
2021/03/28 19:02:24;;;;;;;5.03;1.40;;;;;;;;;;5076823;28;20215;-74
2021/03/28 19:05:36;;;;;;;3.37;1.70;;;;;;;;;;5085670;28;20191;-74
2021/03/28 19:08:44;;;;;;;4.93;1.87;;;;;;;;;;5063794;28;20188;-73
2021/03/28 19:11:58;;;;;;;3.57;1.37;;;;;;;;;;5074621;28;20211;-73
2021/03/28 19:15:35;;;;;;;3.07;1.57;;;;;;;;;;5083377;28;20195;-73
2021/03/28 19:18:39;;;;;;;2.43;1.03;;;;;;;;;;5076730;28;20215;-73
2021/03/28 19:21:53;;;;;;;3.43;1.23;;;;;;;;;;5086913;28;20596;-74
2021/03/28 19:24:57;;;;;;;3.00;1.50;;;;;;;;;;5082567;28;20195;-74
2021/03/28 19:28:23;;;;;;;2.70;1.43;;;;;;;;;;5074490;28;20172;-74
2021/03/28 19:31:36;;;;;;;2.63;1.43;;;;;;;;;;5071838;28;20218;-74
2021/03/28 19:34:40;;;;;;;4.67;1.80;;;;;;;;;;5084870;28;20191;-74
2021/03/28 19:37:50;;;;;;;3.57;1.43;;;;;;;;;;5082983;28;20203;-73
2021/03/28 19:41:13;;;;;;;3.90;1.70;;;;;;;;;;5079231;28;20202;-74
2021/03/28 19:44:24;;;;;;;5.30;1.70;;;;;;;;;;5090501;28;20654;-74
2021/03/28 19:47:36;;;;;;;5.13;1.57;;;;;;;;;;5093389;28;20199;-74
2021/03/28 19:50:40;;;;;;;5.63;1.33;;;;;;;;;;5090450;28;20191;-74
2021/03/28 19:53:45;;;;;;;4.70;1.70;;;;;;;;;;5075135;28;20188;-74
2021/03/28 19:56:52;;;;;;;4.23;1.70;;;;;;;;;;5088050;28;20183;-74